sensor_id;sensor_type;location;lat;lon;timestamp;temperature;humidity
11126;DHT22;5617;54.046;10.676;2022-12-20T00:00:56;5.50;99.90
11126;DHT22;5617;54.046;10.676;2022-12-20T00:03:03;5.50;99.90
11126;DHT22;5617;54.046;10.676;2022-12-20T00:05:10;5.50;99.90
11126;DHT22;5617;54.046;10.676;2022-12-20T00:07:17;5.50;99.90
11126;DHT22;5617;54.046;10.676;2022-12-20T00:09:24;5.50;99.90
11126;DHT22;5617;54.046;10.676;2022-12-20T00:11:31;5.50;99.90
11126;DHT22;5617;54.046;10.676;2022-12-20T00:13:39;5.50;99.90
11126;DHT22;5617;54.046;10.676;2022-12-20T00:15:46;5.50;99.90
11126;DHT22;5617;54.046;10.676;2022-12-20T00:17:53;5.50;99.90
11126;DHT22;5617;54.046;10.676;2022-12-20T00:20:00;5.60;99.90
11126;DHT22;5617;54.046;10.676;2022-12-20T00:22:07;5.50;99.90
11126;DHT22;5617;54.046;10.676;2022-12-20T00:24:14;5.60;99.90
11126;DHT22;5617;54.046;10.676;2022-12-20T00:26:24;5.60;99.90
11126;DHT22;5617;54.046;10.676;2022-12-20T00:28:31;5.60;99.90
11126;DHT22;5617;54.046;10.676;2022-12-20T00:30:39;5.60;99.90
11126;DHT22;5617;54.046;10.676;2022-12-20T00:32:46;5.60;99.90
11126;DHT22;5617;54.046;10.676;2022-12-20T00:34:53;5.60;99.90
11126;DHT22;5617;54.046;10.676;2022-12-20T00:37:00;5.60;99.90
11126;DHT22;5617;54.046;10.676;2022-12-20T00:39:08;5.60;99.90
11126;DHT22;5617;54.046;10.676;2022-12-20T00:41:16;5.60;99.90
11126;DHT22;5617;54.046;10.676;2022-12-20T00:43:23;5.60;99.90
11126;DHT22;5617;54.046;10.676;2022-12-20T00:45:30;5.60;99.90
11126;DHT22;5617;54.046;10.676;2022-12-20T00:47:39;5.70;99.90
11126;DHT22;5617;54.046;10.676;2022-12-20T00:49:46;5.70;99.90
11126;DHT22;5617;54.046;10.676;2022-12-20T00:51:53;5.70;99.90
11126;DHT22;5617;54.046;10.676;2022-12-20T00:54:00;5.70;99.90
11126;DHT22;5617;54.046;10.676;2022-12-20T00:56:08;5.70;99.90
11126;DHT22;5617;54.046;10.676;2022-12-20T00:58:15;5.70;99.90
11126;DHT22;5617;54.046;10.676;2022-12-20T01:00:22;5.80;99.90
11126;DHT22;5617;54.046;10.676;2022-12-20T01:02:28;5.80;99.90
11126;DHT22;5617;54.046;10.676;2022-12-20T01:04:37;5.70;99.90
11126;DHT22;5617;54.046;10.676;2022-12-20T01:06:44;5.80;99.90
11126;DHT22;5617;54.046;10.676;2022-12-20T01:08:51;5.80;99.90
11126;DHT22;5617;54.046;10.676;2022-12-20T01:10:58;5.90;99.90
11126;DHT22;5617;54.046;10.676;2022-12-20T01:13:05;5.90;99.90
11126;DHT22;5617;54.046;10.676;2022-12-20T01:15:14;5.90;99.90
11126;DHT22;5617;54.046;10.676;2022-12-20T01:17:21;5.90;99.90
11126;DHT22;5617;54.046;10.676;2022-12-20T01:19:28;6.00;99.90
11126;DHT22;5617;54.046;10.676;2022-12-20T01:21:36;6.00;99.90
11126;DHT22;5617;54.046;10.676;2022-12-20T01:23:44;6.00;99.90
11126;DHT22;5617;54.046;10.676;2022-12-20T01:25:51;6.00;99.90
11126;DHT22;5617;54.046;10.676;2022-12-20T01:27:59;6.00;99.90
11126;DHT22;5617;54.046;10.676;2022-12-20T01:30:07;6.00;99.90
11126;DHT22;5617;54.046;10.676;2022-12-20T01:32:17;6.00;99.90
11126;DHT22;5617;54.046;10.676;2022-12-20T01:34:24;6.00;99.90
11126;DHT22;5617;54.046;10.676;2022-12-20T01:36:33;6.00;99.90
11126;DHT22;5617;54.046;10.676;2022-12-20T01:38:41;6.00;99.90
11126;DHT22;5617;54.046;10.676;2022-12-20T01:40:48;6.10;99.90
11126;DHT22;5617;54.046;10.676;2022-12-20T01:42:55;6.10;99.90
11126;DHT22;5617;54.046;10.676;2022-12-20T01:45:07;6.10;99.90
11126;DHT22;5617;54.046;10.676;2022-12-20T01:47:14;6.10;99.90
11126;DHT22;5617;54.046;10.676;2022-12-20T01:49:25;6.10;99.90
11126;DHT22;5617;54.046;10.676;2022-12-20T01:51:35;6.20;99.90
11126;DHT22;5617;54.046;10.676;2022-12-20T01:53:45;6.20;99.90
11126;DHT22;5617;54.046;10.676;2022-12-20T01:55:53;6.20;99.90
11126;DHT22;5617;54.046;10.676;2022-12-20T01:58:02;6.20;99.90
11126;DHT22;5617;54.046;10.676;2022-12-20T02:00:11;6.40;99.90
11126;DHT22;5617;54.046;10.676;2022-12-20T02:02:18;6.30;99.90
11126;DHT22;5617;54.046;10.676;2022-12-20T02:04:25;6.30;99.90
11126;DHT22;5617;54.046;10.676;2022-12-20T02:06:32;6.30;99.90
11126;DHT22;5617;54.046;10.676;2022-12-20T02:08:39;6.30;99.90
11126;DHT22;5617;54.046;10.676;2022-12-20T02:11:00;6.40;99.90
11126;DHT22;5617;54.046;10.676;2022-12-20T02:13:18;6.40;99.90
11126;DHT22;5617;54.046;10.676;2022-12-20T02:15:38;6.40;99.90
11126;DHT22;5617;54.046;10.676;2022-12-20T02:17:58;6.40;99.90
11126;DHT22;5617;54.046;10.676;2022-12-20T02:20:36;6.40;99.90
11126;DHT22;5617;54.046;10.676;2022-12-20T02:23:06;6.50;99.90
11126;DHT22;5617;54.046;10.676;2022-12-20T02:25:36;6.50;99.90
11126;DHT22;5617;54.046;10.676;2022-12-20T02:27:53;6.50;99.90
11126;DHT22;5617;54.046;10.676;2022-12-20T02:30:15;6.50;99.90
11126;DHT22;5617;54.046;10.676;2022-12-20T02:32:25;6.50;99.90
11126;DHT22;5617;54.046;10.676;2022-12-20T02:34:34;6.50;99.90
11126;DHT22;5617;54.046;10.676;2022-12-20T02:36:42;6.60;99.90
11126;DHT22;5617;54.046;10.676;2022-12-20T02:38:50;6.60;99.90
11126;DHT22;5617;54.046;10.676;2022-12-20T02:41:01;6.60;99.90
11126;DHT22;5617;54.046;10.676;2022-12-20T02:43:09;6.60;99.90
11126;DHT22;5617;54.046;10.676;2022-12-20T02:45:39;6.60;99.90
11126;DHT22;5617;54.046;10.676;2022-12-20T02:47:49;6.60;99.90
11126;DHT22;5617;54.046;10.676;2022-12-20T02:49:58;6.60;99.90
11126;DHT22;5617;54.046;10.676;2022-12-20T02:52:06;6.60;99.90
11126;DHT22;5617;54.046;10.676;2022-12-20T02:54:15;6.60;99.90
11126;DHT22;5617;54.046;10.676;2022-12-20T02:56:26;6.60;99.90
11126;DHT22;5617;54.046;10.676;2022-12-20T02:58:37;6.70;99.90
11126;DHT22;5617;54.046;10.676;2022-12-20T03:00:49;6.70;99.90
11126;DHT22;5617;54.046;10.676;2022-12-20T03:02:57;6.70;99.90
11126;DHT22;5617;54.046;10.676;2022-12-20T03:05:24;6.70;99.90
11126;DHT22;5617;54.046;10.676;2022-12-20T03:07:33;6.70;99.90
11126;DHT22;5617;54.046;10.676;2022-12-20T03:09:42;6.70;99.90
11126;DHT22;5617;54.046;10.676;2022-12-20T03:11:49;6.70;99.90
11126;DHT22;5617;54.046;10.676;2022-12-20T03:13:56;6.70;99.90
11126;DHT22;5617;54.046;10.676;2022-12-20T03:16:05;6.70;99.90
11126;DHT22;5617;54.046;10.676;2022-12-20T03:18:12;6.70;99.90
11126;DHT22;5617;54.046;10.676;2022-12-20T03:20:20;6.70;99.90
11126;DHT22;5617;54.046;10.676;2022-12-20T03:22:27;6.70;99.90
11126;DHT22;5617;54.046;10.676;2022-12-20T03:24:34;6.70;99.90
11126;DHT22;5617;54.046;10.676;2022-12-20T03:26:41;6.70;99.90
11126;DHT22;5617;54.046;10.676;2022-12-20T03:28:49;6.70;99.90
11126;DHT22;5617;54.046;10.676;2022-12-20T03:30:55;6.80;99.90
11126;DHT22;5617;54.046;10.676;2022-12-20T03:33:04;6.80;99.90
11126;DHT22;5617;54.046;10.676;2022-12-20T03:35:10;6.80;99.90
11126;DHT22;5617;54.046;10.676;2022-12-20T03:37:17;6.80;99.90
11126;DHT22;5617;54.046;10.676;2022-12-20T03:39:24;6.80;99.90
11126;DHT22;5617;54.046;10.676;2022-12-20T03:41:31;6.90;99.90
11126;DHT22;5617;54.046;10.676;2022-12-20T03:43:38;6.90;99.90
11126;DHT22;5617;54.046;10.676;2022-12-20T03:45:44;6.90;99.90
11126;DHT22;5617;54.046;10.676;2022-12-20T03:47:51;6.90;99.90
11126;DHT22;5617;54.046;10.676;2022-12-20T03:49:59;6.90;99.90
11126;DHT22;5617;54.046;10.676;2022-12-20T03:52:06;6.90;99.90
11126;DHT22;5617;54.046;10.676;2022-12-20T03:54:13;6.90;99.90
11126;DHT22;5617;54.046;10.676;2022-12-20T03:56:20;6.90;99.90
11126;DHT22;5617;54.046;10.676;2022-12-20T03:58:27;6.90;99.90
11126;DHT22;5617;54.046;10.676;2022-12-20T04:00:34;6.90;99.90
11126;DHT22;5617;54.046;10.676;2022-12-20T04:02:41;6.90;99.90
11126;DHT22;5617;54.046;10.676;2022-12-20T04:04:48;6.90;99.90
11126;DHT22;5617;54.046;10.676;2022-12-20T04:06:56;6.80;99.90
11126;DHT22;5617;54.046;10.676;2022-12-20T04:09:03;6.80;99.90
11126;DHT22;5617;54.046;10.676;2022-12-20T04:11:10;6.80;99.90
11126;DHT22;5617;54.046;10.676;2022-12-20T04:13:23;6.80;99.90
11126;DHT22;5617;54.046;10.676;2022-12-20T04:15:30;6.80;99.90
11126;DHT22;5617;54.046;10.676;2022-12-20T04:17:37;6.80;99.90
11126;DHT22;5617;54.046;10.676;2022-12-20T04:19:44;6.80;99.90
11126;DHT22;5617;54.046;10.676;2022-12-20T04:21:51;6.80;99.90
11126;DHT22;5617;54.046;10.676;2022-12-20T04:24:02;6.90;99.90
11126;DHT22;5617;54.046;10.676;2022-12-20T04:26:10;6.90;99.90
11126;DHT22;5617;54.046;10.676;2022-12-20T04:28:17;6.90;99.90
11126;DHT22;5617;54.046;10.676;2022-12-20T04:30:24;6.90;99.90
11126;DHT22;5617;54.046;10.676;2022-12-20T04:32:31;6.90;99.90
11126;DHT22;5617;54.046;10.676;2022-12-20T04:34:38;6.90;99.90
11126;DHT22;5617;54.046;10.676;2022-12-20T04:36:45;6.90;99.90
11126;DHT22;5617;54.046;10.676;2022-12-20T04:38:52;6.90;99.90
11126;DHT22;5617;54.046;10.676;2022-12-20T04:41:00;6.90;99.90
11126;DHT22;5617;54.046;10.676;2022-12-20T04:43:07;6.90;99.90
11126;DHT22;5617;54.046;10.676;2022-12-20T04:45:15;6.90;99.90
11126;DHT22;5617;54.046;10.676;2022-12-20T04:47:22;7.00;99.90
11126;DHT22;5617;54.046;10.676;2022-12-20T04:49:29;7.00;99.90
11126;DHT22;5617;54.046;10.676;2022-12-20T04:51:36;7.00;99.90
11126;DHT22;5617;54.046;10.676;2022-12-20T04:53:43;7.00;99.90
11126;DHT22;5617;54.046;10.676;2022-12-20T04:55:52;7.10;99.90
11126;DHT22;5617;54.046;10.676;2022-12-20T04:58:00;7.00;99.90
11126;DHT22;5617;54.046;10.676;2022-12-20T05:00:08;7.00;99.90
11126;DHT22;5617;54.046;10.676;2022-12-20T05:02:15;7.00;99.90
11126;DHT22;5617;54.046;10.676;2022-12-20T05:04:22;7.00;99.90
11126;DHT22;5617;54.046;10.676;2022-12-20T05:06:29;7.00;99.90
11126;DHT22;5617;54.046;10.676;2022-12-20T05:08:36;7.00;99.90
11126;DHT22;5617;54.046;10.676;2022-12-20T05:10:43;7.00;99.90
11126;DHT22;5617;54.046;10.676;2022-12-20T05:12:50;7.10;99.90
11126;DHT22;5617;54.046;10.676;2022-12-20T05:14:59;7.10;99.90
11126;DHT22;5617;54.046;10.676;2022-12-20T05:17:06;7.10;99.90
11126;DHT22;5617;54.046;10.676;2022-12-20T05:19:14;7.10;99.90
11126;DHT22;5617;54.046;10.676;2022-12-20T05:21:20;7.10;99.90
11126;DHT22;5617;54.046;10.676;2022-12-20T05:23:45;7.10;99.90
11126;DHT22;5617;54.046;10.676;2022-12-20T05:26:09;7.10;99.90
11126;DHT22;5617;54.046;10.676;2022-12-20T05:28:24;7.10;99.90
11126;DHT22;5617;54.046;10.676;2022-12-20T05:30:33;7.10;99.90
11126;DHT22;5617;54.046;10.676;2022-12-20T05:32:40;7.10;99.90
11126;DHT22;5617;54.046;10.676;2022-12-20T05:34:47;7.10;99.90
11126;DHT22;5617;54.046;10.676;2022-12-20T05:36:54;7.10;99.90
11126;DHT22;5617;54.046;10.676;2022-12-20T05:39:00;7.10;99.90
11126;DHT22;5617;54.046;10.676;2022-12-20T05:41:07;7.10;99.90
11126;DHT22;5617;54.046;10.676;2022-12-20T05:43:15;7.10;99.90
11126;DHT22;5617;54.046;10.676;2022-12-20T05:45:22;7.10;99.90
11126;DHT22;5617;54.046;10.676;2022-12-20T05:47:31;7.10;99.90
11126;DHT22;5617;54.046;10.676;2022-12-20T05:49:38;7.10;99.90
11126;DHT22;5617;54.046;10.676;2022-12-20T05:51:45;7.10;99.90
11126;DHT22;5617;54.046;10.676;2022-12-20T05:53:52;7.10;99.90
11126;DHT22;5617;54.046;10.676;2022-12-20T05:56:00;7.10;99.90
11126;DHT22;5617;54.046;10.676;2022-12-20T05:58:06;7.10;99.90
11126;DHT22;5617;54.046;10.676;2022-12-20T06:00:14;7.10;99.90
11126;DHT22;5617;54.046;10.676;2022-12-20T06:02:21;7.10;99.90
11126;DHT22;5617;54.046;10.676;2022-12-20T06:04:30;7.10;99.90
11126;DHT22;5617;54.046;10.676;2022-12-20T06:06:37;7.10;99.90
11126;DHT22;5617;54.046;10.676;2022-12-20T06:08:44;7.10;99.90
11126;DHT22;5617;54.046;10.676;2022-12-20T06:10:51;7.10;99.90
11126;DHT22;5617;54.046;10.676;2022-12-20T06:12:58;7.10;99.90
11126;DHT22;5617;54.046;10.676;2022-12-20T06:15:06;7.10;99.90
11126;DHT22;5617;54.046;10.676;2022-12-20T06:17:13;7.10;99.90
11126;DHT22;5617;54.046;10.676;2022-12-20T06:19:20;7.10;99.90
11126;DHT22;5617;54.046;10.676;2022-12-20T06:21:28;7.10;99.90
11126;DHT22;5617;54.046;10.676;2022-12-20T06:23:36;7.10;99.90
11126;DHT22;5617;54.046;10.676;2022-12-20T06:25:43;7.10;99.90
11126;DHT22;5617;54.046;10.676;2022-12-20T06:27:50;7.10;99.90
11126;DHT22;5617;54.046;10.676;2022-12-20T06:29:57;7.10;99.90
11126;DHT22;5617;54.046;10.676;2022-12-20T06:32:04;7.10;99.90
11126;DHT22;5617;54.046;10.676;2022-12-20T06:34:11;7.10;99.90
11126;DHT22;5617;54.046;10.676;2022-12-20T06:36:18;7.10;99.90
11126;DHT22;5617;54.046;10.676;2022-12-20T06:38:26;7.10;99.90
11126;DHT22;5617;54.046;10.676;2022-12-20T06:40:33;7.10;99.90
11126;DHT22;5617;54.046;10.676;2022-12-20T06:42:40;7.10;99.90
11126;DHT22;5617;54.046;10.676;2022-12-20T06:44:49;7.10;99.90
11126;DHT22;5617;54.046;10.676;2022-12-20T06:46:56;7.10;99.90
11126;DHT22;5617;54.046;10.676;2022-12-20T06:49:02;7.10;99.90
11126;DHT22;5617;54.046;10.676;2022-12-20T06:51:09;7.10;99.90
11126;DHT22;5617;54.046;10.676;2022-12-20T06:53:16;7.00;99.90
11126;DHT22;5617;54.046;10.676;2022-12-20T06:55:24;7.00;99.90
11126;DHT22;5617;54.046;10.676;2022-12-20T06:57:31;7.00;99.90
11126;DHT22;5617;54.046;10.676;2022-12-20T06:59:38;7.00;99.90
11126;DHT22;5617;54.046;10.676;2022-12-20T07:01:45;7.10;99.90
11126;DHT22;5617;54.046;10.676;2022-12-20T07:03:52;7.10;99.90
11126;DHT22;5617;54.046;10.676;2022-12-20T07:05:59;7.10;99.90
11126;DHT22;5617;54.046;10.676;2022-12-20T07:08:06;7.10;99.90
11126;DHT22;5617;54.046;10.676;2022-12-20T07:10:13;7.10;99.90
11126;DHT22;5617;54.046;10.676;2022-12-20T07:12:21;7.10;99.90
11126;DHT22;5617;54.046;10.676;2022-12-20T07:14:28;7.10;99.90
11126;DHT22;5617;54.046;10.676;2022-12-20T07:16:35;7.10;99.90
11126;DHT22;5617;54.046;10.676;2022-12-20T07:18:43;7.10;99.90
11126;DHT22;5617;54.046;10.676;2022-12-20T07:21:10;7.10;99.90
11126;DHT22;5617;54.046;10.676;2022-12-20T07:23:33;7.10;99.90
11126;DHT22;5617;54.046;10.676;2022-12-20T07:25:40;7.20;99.90
11126;DHT22;5617;54.046;10.676;2022-12-20T07:27:49;7.20;99.90
11126;DHT22;5617;54.046;10.676;2022-12-20T07:29:56;7.20;99.90
11126;DHT22;5617;54.046;10.676;2022-12-20T07:32:03;7.20;99.90
11126;DHT22;5617;54.046;10.676;2022-12-20T07:34:10;7.20;99.90
11126;DHT22;5617;54.046;10.676;2022-12-20T07:36:17;7.20;99.90
11126;DHT22;5617;54.046;10.676;2022-12-20T07:38:26;7.20;99.90
11126;DHT22;5617;54.046;10.676;2022-12-20T07:40:33;7.20;99.90
11126;DHT22;5617;54.046;10.676;2022-12-20T07:42:39;7.20;99.90
11126;DHT22;5617;54.046;10.676;2022-12-20T07:44:48;7.20;99.90
11126;DHT22;5617;54.046;10.676;2022-12-20T07:46:55;7.30;99.90
11126;DHT22;5617;54.046;10.676;2022-12-20T07:49:01;7.30;99.90
11126;DHT22;5617;54.046;10.676;2022-12-20T07:51:13;7.30;99.90
11126;DHT22;5617;54.046;10.676;2022-12-20T07:53:22;7.30;99.90
11126;DHT22;5617;54.046;10.676;2022-12-20T07:55:30;7.30;99.90
11126;DHT22;5617;54.046;10.676;2022-12-20T07:57:40;7.30;99.90
11126;DHT22;5617;54.046;10.676;2022-12-20T07:59:54;7.30;99.90
11126;DHT22;5617;54.046;10.676;2022-12-20T08:02:03;7.30;99.90
11126;DHT22;5617;54.046;10.676;2022-12-20T08:04:14;7.40;99.90
11126;DHT22;5617;54.046;10.676;2022-12-20T08:06:22;7.40;99.90
11126;DHT22;5617;54.046;10.676;2022-12-20T08:08:34;7.40;99.90
11126;DHT22;5617;54.046;10.676;2022-12-20T08:10:42;7.40;99.90
11126;DHT22;5617;54.046;10.676;2022-12-20T08:12:50;7.40;99.90
11126;DHT22;5617;54.046;10.676;2022-12-20T08:14:58;7.60;99.90
11126;DHT22;5617;54.046;10.676;2022-12-20T08:17:05;7.50;99.90
11126;DHT22;5617;54.046;10.676;2022-12-20T08:19:12;7.50;99.90
11126;DHT22;5617;54.046;10.676;2022-12-20T08:21:19;7.50;99.90
11126;DHT22;5617;54.046;10.676;2022-12-20T08:23:26;7.60;99.90
11126;DHT22;5617;54.046;10.676;2022-12-20T08:25:33;7.60;99.90
11126;DHT22;5617;54.046;10.676;2022-12-20T08:27:40;7.60;99.90
11126;DHT22;5617;54.046;10.676;2022-12-20T08:29:48;7.70;99.90
11126;DHT22;5617;54.046;10.676;2022-12-20T08:31:56;7.70;99.90
11126;DHT22;5617;54.046;10.676;2022-12-20T08:34:03;7.70;99.90
11126;DHT22;5617;54.046;10.676;2022-12-20T08:36:11;7.80;99.90
11126;DHT22;5617;54.046;10.676;2022-12-20T08:38:18;7.80;99.90
11126;DHT22;5617;54.046;10.676;2022-12-20T08:40:25;7.90;99.90
11126;DHT22;5617;54.046;10.676;2022-12-20T08:42:33;7.90;99.90
11126;DHT22;5617;54.046;10.676;2022-12-20T08:44:39;8.00;99.90
11126;DHT22;5617;54.046;10.676;2022-12-20T08:46:46;8.00;99.90
11126;DHT22;5617;54.046;10.676;2022-12-20T08:48:54;8.00;99.90
11126;DHT22;5617;54.046;10.676;2022-12-20T08:51:02;8.10;99.90
11126;DHT22;5617;54.046;10.676;2022-12-20T08:53:10;8.10;99.90
11126;DHT22;5617;54.046;10.676;2022-12-20T08:55:17;8.10;99.90
11126;DHT22;5617;54.046;10.676;2022-12-20T08:57:23;8.10;99.90
11126;DHT22;5617;54.046;10.676;2022-12-20T08:59:30;8.20;99.90
11126;DHT22;5617;54.046;10.676;2022-12-20T09:01:37;8.20;99.90
11126;DHT22;5617;54.046;10.676;2022-12-20T09:03:45;8.30;99.90
11126;DHT22;5617;54.046;10.676;2022-12-20T09:05:53;8.30;99.90
11126;DHT22;5617;54.046;10.676;2022-12-20T09:08:01;8.30;99.90
11126;DHT22;5617;54.046;10.676;2022-12-20T09:10:09;8.30;99.90
11126;DHT22;5617;54.046;10.676;2022-12-20T09:12:16;8.40;99.90
11126;DHT22;5617;54.046;10.676;2022-12-20T09:14:23;8.30;99.90
11126;DHT22;5617;54.046;10.676;2022-12-20T09:16:31;8.40;99.90
11126;DHT22;5617;54.046;10.676;2022-12-20T09:18:38;8.40;99.90
11126;DHT22;5617;54.046;10.676;2022-12-20T09:20:45;8.50;99.90
11126;DHT22;5617;54.046;10.676;2022-12-20T09:22:53;8.40;99.90
11126;DHT22;5617;54.046;10.676;2022-12-20T09:25:00;8.40;99.90
11126;DHT22;5617;54.046;10.676;2022-12-20T09:27:08;8.40;99.90
11126;DHT22;5617;54.046;10.676;2022-12-20T09:29:15;8.40;99.90
11126;DHT22;5617;54.046;10.676;2022-12-20T09:31:23;8.40;99.90
11126;DHT22;5617;54.046;10.676;2022-12-20T09:33:33;8.40;99.90
11126;DHT22;5617;54.046;10.676;2022-12-20T09:35:43;8.40;99.90
11126;DHT22;5617;54.046;10.676;2022-12-20T09:37:50;8.50;99.90
11126;DHT22;5617;54.046;10.676;2022-12-20T09:39:59;8.50;99.90
11126;DHT22;5617;54.046;10.676;2022-12-20T09:42:06;8.40;99.90
11126;DHT22;5617;54.046;10.676;2022-12-20T09:44:24;8.40;99.90
11126;DHT22;5617;54.046;10.676;2022-12-20T09:46:33;8.40;99.90
11126;DHT22;5617;54.046;10.676;2022-12-20T09:48:41;8.40;99.90
11126;DHT22;5617;54.046;10.676;2022-12-20T09:50:56;8.50;99.90
11126;DHT22;5617;54.046;10.676;2022-12-20T09:53:25;8.50;99.90
11126;DHT22;5617;54.046;10.676;2022-12-20T09:55:39;8.50;99.90
11126;DHT22;5617;54.046;10.676;2022-12-20T09:57:57;8.50;99.90
11126;DHT22;5617;54.046;10.676;2022-12-20T10:00:11;8.50;99.90
11126;DHT22;5617;54.046;10.676;2022-12-20T10:02:22;8.50;99.90
11126;DHT22;5617;54.046;10.676;2022-12-20T10:04:30;8.50;99.90
11126;DHT22;5617;54.046;10.676;2022-12-20T10:06:44;8.50;99.90
11126;DHT22;5617;54.046;10.676;2022-12-20T10:08:57;8.60;99.90
11126;DHT22;5617;54.046;10.676;2022-12-20T10:11:10;8.60;99.90
11126;DHT22;5617;54.046;10.676;2022-12-20T10:13:28;8.60;99.90
11126;DHT22;5617;54.046;10.676;2022-12-20T10:15:46;8.70;99.90
11126;DHT22;5617;54.046;10.676;2022-12-20T10:18:16;8.70;99.90
11126;DHT22;5617;54.046;10.676;2022-12-20T10:20:36;8.80;99.90
11126;DHT22;5617;54.046;10.676;2022-12-20T10:22:52;8.80;99.90
11126;DHT22;5617;54.046;10.676;2022-12-20T10:25:11;8.80;99.90
11126;DHT22;5617;54.046;10.676;2022-12-20T10:27:21;8.80;99.90
11126;DHT22;5617;54.046;10.676;2022-12-20T10:29:28;8.80;99.90
11126;DHT22;5617;54.046;10.676;2022-12-20T10:31:36;8.80;99.90
11126;DHT22;5617;54.046;10.676;2022-12-20T10:33:44;8.80;99.90
11126;DHT22;5617;54.046;10.676;2022-12-20T10:35:51;8.90;99.90
11126;DHT22;5617;54.046;10.676;2022-12-20T10:38:01;8.90;99.90
11126;DHT22;5617;54.046;10.676;2022-12-20T10:40:25;8.90;99.90
11126;DHT22;5617;54.046;10.676;2022-12-20T10:42:37;9.00;99.90
11126;DHT22;5617;54.046;10.676;2022-12-20T10:44:45;9.00;99.90
11126;DHT22;5617;54.046;10.676;2022-12-20T10:46:54;9.10;99.90
11126;DHT22;5617;54.046;10.676;2022-12-20T10:49:21;9.10;99.90
11126;DHT22;5617;54.046;10.676;2022-12-20T10:51:28;9.10;99.90
11126;DHT22;5617;54.046;10.676;2022-12-20T10:53:35;9.10;99.90
11126;DHT22;5617;54.046;10.676;2022-12-20T10:55:43;9.20;99.90
11126;DHT22;5617;54.046;10.676;2022-12-20T10:57:51;9.10;99.90
11126;DHT22;5617;54.046;10.676;2022-12-20T11:00:00;9.10;99.90
11126;DHT22;5617;54.046;10.676;2022-12-20T11:02:28;9.10;99.90
11126;DHT22;5617;54.046;10.676;2022-12-20T11:04:35;9.20;99.90
11126;DHT22;5617;54.046;10.676;2022-12-20T11:06:44;9.20;99.90
11126;DHT22;5617;54.046;10.676;2022-12-20T11:08:51;9.20;99.90
11126;DHT22;5617;54.046;10.676;2022-12-20T11:11:14;9.10;99.90
11126;DHT22;5617;54.046;10.676;2022-12-20T11:13:25;9.10;99.90
11126;DHT22;5617;54.046;10.676;2022-12-20T11:15:35;9.10;99.90
11126;DHT22;5617;54.046;10.676;2022-12-20T11:17:44;9.10;99.90
11126;DHT22;5617;54.046;10.676;2022-12-20T11:20:08;9.10;99.90
11126;DHT22;5617;54.046;10.676;2022-12-20T11:22:28;9.10;99.90
11126;DHT22;5617;54.046;10.676;2022-12-20T11:24:44;9.10;99.90
11126;DHT22;5617;54.046;10.676;2022-12-20T11:27:05;9.10;99.90
11126;DHT22;5617;54.046;10.676;2022-12-20T11:29:31;9.10;99.90
11126;DHT22;5617;54.046;10.676;2022-12-20T11:31:50;9.10;99.90
11126;DHT22;5617;54.046;10.676;2022-12-20T11:34:13;9.10;99.90
11126;DHT22;5617;54.046;10.676;2022-12-20T11:36:31;9.10;99.90
11126;DHT22;5617;54.046;10.676;2022-12-20T11:38:55;9.10;99.90
11126;DHT22;5617;54.046;10.676;2022-12-20T11:41:11;9.10;99.90
11126;DHT22;5617;54.046;10.676;2022-12-20T11:43:36;9.20;99.90
11126;DHT22;5617;54.046;10.676;2022-12-20T11:46:03;9.20;99.90
11126;DHT22;5617;54.046;10.676;2022-12-20T11:48:33;9.30;99.90
11126;DHT22;5617;54.046;10.676;2022-12-20T11:50:57;9.30;99.90
11126;DHT22;5617;54.046;10.676;2022-12-20T11:53:10;9.30;99.90
11126;DHT22;5617;54.046;10.676;2022-12-20T11:55:23;9.30;99.90
11126;DHT22;5617;54.046;10.676;2022-12-20T11:57:36;9.40;99.90
11126;DHT22;5617;54.046;10.676;2022-12-20T11:59:47;9.40;99.90
11126;DHT22;5617;54.046;10.676;2022-12-20T12:02:04;9.40;99.90
11126;DHT22;5617;54.046;10.676;2022-12-20T12:04:17;9.40;99.90
11126;DHT22;5617;54.046;10.676;2022-12-20T12:06:29;9.40;99.90
11126;DHT22;5617;54.046;10.676;2022-12-20T12:08:41;9.50;99.90
11126;DHT22;5617;54.046;10.676;2022-12-20T12:10:55;9.40;99.90
11126;DHT22;5617;54.046;10.676;2022-12-20T12:13:11;9.40;99.90
11126;DHT22;5617;54.046;10.676;2022-12-20T12:15:27;9.50;99.90
11126;DHT22;5617;54.046;10.676;2022-12-20T12:17:44;9.40;99.90
11126;DHT22;5617;54.046;10.676;2022-12-20T12:19:55;9.40;99.90
11126;DHT22;5617;54.046;10.676;2022-12-20T12:22:13;9.40;99.90
11126;DHT22;5617;54.046;10.676;2022-12-20T12:24:26;9.60;99.90
11126;DHT22;5617;54.046;10.676;2022-12-20T12:26:36;9.50;99.90
11126;DHT22;5617;54.046;10.676;2022-12-20T12:28:53;9.50;99.90
11126;DHT22;5617;54.046;10.676;2022-12-20T12:31:05;9.50;99.90
11126;DHT22;5617;54.046;10.676;2022-12-20T12:33:18;9.50;99.90
11126;DHT22;5617;54.046;10.676;2022-12-20T12:38:22;9.60;99.90
11126;DHT22;5617;54.046;10.676;2022-12-20T12:40:49;9.50;99.90
11126;DHT22;5617;54.046;10.676;2022-12-20T12:45:54;9.50;99.90
11126;DHT22;5617;54.046;10.676;2022-12-20T12:48:06;9.50;99.90
11126;DHT22;5617;54.046;10.676;2022-12-20T12:50:23;9.50;99.90
11126;DHT22;5617;54.046;10.676;2022-12-20T12:52:41;9.60;99.90
11126;DHT22;5617;54.046;10.676;2022-12-20T12:54:50;9.50;99.90
11126;DHT22;5617;54.046;10.676;2022-12-20T12:56:59;9.60;99.90
11126;DHT22;5617;54.046;10.676;2022-12-20T12:59:26;9.50;99.90
11126;DHT22;5617;54.046;10.676;2022-12-20T13:01:48;9.60;99.90
11126;DHT22;5617;54.046;10.676;2022-12-20T13:04:19;9.60;99.90
11126;DHT22;5617;54.046;10.676;2022-12-20T13:06:54;9.60;99.90
11126;DHT22;5617;54.046;10.676;2022-12-20T13:09:18;9.60;99.90
11126;DHT22;5617;54.046;10.676;2022-12-20T13:11:29;9.60;99.90
11126;DHT22;5617;54.046;10.676;2022-12-20T13:13:37;9.60;99.90
11126;DHT22;5617;54.046;10.676;2022-12-20T13:18:27;9.60;99.90
11126;DHT22;5617;54.046;10.676;2022-12-20T13:20:35;9.60;99.90
11126;DHT22;5617;54.046;10.676;2022-12-20T13:23:05;9.50;99.90
11126;DHT22;5617;54.046;10.676;2022-12-20T13:25:27;9.60;99.90
11126;DHT22;5617;54.046;10.676;2022-12-20T13:27:36;9.60;99.90
11126;DHT22;5617;54.046;10.676;2022-12-20T13:29:57;9.60;99.90
11126;DHT22;5617;54.046;10.676;2022-12-20T13:34:59;9.60;99.90
11126;DHT22;5617;54.046;10.676;2022-12-20T13:37:24;9.50;99.90
11126;DHT22;5617;54.046;10.676;2022-12-20T13:39:33;9.60;99.90
11126;DHT22;5617;54.046;10.676;2022-12-20T13:41:47;9.60;99.90
11126;DHT22;5617;54.046;10.676;2022-12-20T13:43:59;9.60;99.90
11126;DHT22;5617;54.046;10.676;2022-12-20T13:46:12;9.50;99.90
11126;DHT22;5617;54.046;10.676;2022-12-20T13:48:25;9.60;99.90
11126;DHT22;5617;54.046;10.676;2022-12-20T13:50:37;9.60;99.90
11126;DHT22;5617;54.046;10.676;2022-12-20T13:52:45;9.60;99.90
11126;DHT22;5617;54.046;10.676;2022-12-20T13:54:56;9.60;99.90
11126;DHT22;5617;54.046;10.676;2022-12-20T13:57:05;9.60;99.90
11126;DHT22;5617;54.046;10.676;2022-12-20T13:59:17;9.60;99.90
11126;DHT22;5617;54.046;10.676;2022-12-20T14:01:25;9.60;99.90
11126;DHT22;5617;54.046;10.676;2022-12-20T14:03:33;9.60;99.90
11126;DHT22;5617;54.046;10.676;2022-12-20T14:05:46;9.60;99.90
11126;DHT22;5617;54.046;10.676;2022-12-20T14:07:57;9.60;99.90